sensor_id;sensor_type;location;lat;lon;timestamp;P1;durP1;ratioP1;P2;durP2;ratioP2
4742;SDS011;24293;48.154;7.748;2023-04-19T00:00:15;8.93;;;6.60;;
4742;SDS011;24293;48.154;7.748;2023-04-19T00:02:42;10.17;;;7.07;;
4742;SDS011;24293;48.154;7.748;2023-04-19T00:05:10;11.20;;;7.20;;
4742;SDS011;24293;48.154;7.748;2023-04-19T00:07:37;11.40;;;7.17;;
4742;SDS011;24293;48.154;7.748;2023-04-19T00:10:04;8.63;;;6.90;;
4742;SDS011;24293;48.154;7.748;2023-04-19T00:12:31;9.37;;;6.37;;
4742;SDS011;24293;48.154;7.748;2023-04-19T00:14:57;11.03;;;7.43;;
4742;SDS011;24293;48.154;7.748;2023-04-19T00:17:24;13.90;;;7.33;;
4742;SDS011;24293;48.154;7.748;2023-04-19T00:19:51;11.70;;;7.13;;
4742;SDS011;24293;48.154;7.748;2023-04-19T00:22:19;9.77;;;7.13;;
4742;SDS011;24293;48.154;7.748;2023-04-19T00:24:45;11.03;;;7.80;;
4742;SDS011;24293;48.154;7.748;2023-04-19T00:27:12;10.80;;;7.60;;
4742;SDS011;24293;48.154;7.748;2023-04-19T00:29:38;10.93;;;7.70;;
4742;SDS011;24293;48.154;7.748;2023-04-19T00:32:05;10.70;;;7.30;;
4742;SDS011;24293;48.154;7.748;2023-04-19T00:34:32;11.80;;;8.57;;
4742;SDS011;24293;48.154;7.748;2023-04-19T00:36:59;10.33;;;7.33;;
4742;SDS011;24293;48.154;7.748;2023-04-19T00:39:27;11.17;;;8.60;;
4742;SDS011;24293;48.154;7.748;2023-04-19T00:41:53;10.97;;;7.90;;
4742;SDS011;24293;48.154;7.748;2023-04-19T00:44:21;13.80;;;8.17;;
4742;SDS011;24293;48.154;7.748;2023-04-19T00:46:48;12.57;;;8.37;;
4742;SDS011;24293;48.154;7.748;2023-04-19T00:49:14;13.30;;;8.50;;
4742;SDS011;24293;48.154;7.748;2023-04-19T00:51:41;11.60;;;7.80;;
4742;SDS011;24293;48.154;7.748;2023-04-19T00:54:08;12.73;;;9.17;;
4742;SDS011;24293;48.154;7.748;2023-04-19T00:56:36;14.47;;;9.13;;
4742;SDS011;24293;48.154;7.748;2023-04-19T00:59:02;13.53;;;8.57;;
4742;SDS011;24293;48.154;7.748;2023-04-19T01:01:30;13.37;;;9.20;;
4742;SDS011;24293;48.154;7.748;2023-04-19T01:03:56;11.10;;;7.77;;
4742;SDS011;24293;48.154;7.748;2023-04-19T01:06:23;12.30;;;9.17;;
4742;SDS011;24293;48.154;7.748;2023-04-19T01:08:51;10.83;;;8.07;;
4742;SDS011;24293;48.154;7.748;2023-04-19T01:11:18;14.30;;;9.50;;
4742;SDS011;24293;48.154;7.748;2023-04-19T01:13:46;12.43;;;8.37;;
4742;SDS011;24293;48.154;7.748;2023-04-19T01:16:12;16.13;;;9.13;;
4742;SDS011;24293;48.154;7.748;2023-04-19T01:18:39;12.93;;;8.93;;
4742;SDS011;24293;48.154;7.748;2023-04-19T01:21:05;11.50;;;8.00;;
4742;SDS011;24293;48.154;7.748;2023-04-19T01:23:34;10.47;;;7.33;;
4742;SDS011;24293;48.154;7.748;2023-04-19T01:26:00;12.43;;;9.00;;
4742;SDS011;24293;48.154;7.748;2023-04-19T01:28:27;12.27;;;9.10;;
4742;SDS011;24293;48.154;7.748;2023-04-19T01:30:53;13.07;;;8.63;;
4742;SDS011;24293;48.154;7.748;2023-04-19T01:33:20;12.90;;;9.00;;
4742;SDS011;24293;48.154;7.748;2023-04-19T01:35:47;13.80;;;9.00;;
4742;SDS011;24293;48.154;7.748;2023-04-19T01:38:13;11.60;;;8.63;;
4742;SDS011;24293;48.154;7.748;2023-04-19T01:40:41;12.37;;;8.47;;
4742;SDS011;24293;48.154;7.748;2023-04-19T01:43:10;13.70;;;8.97;;
4742;SDS011;24293;48.154;7.748;2023-04-19T01:45:36;12.07;;;9.00;;
4742;SDS011;24293;48.154;7.748;2023-04-19T01:48:03;14.53;;;9.30;;
4742;SDS011;24293;48.154;7.748;2023-04-19T01:50:30;15.53;;;9.43;;
4742;SDS011;24293;48.154;7.748;2023-04-19T01:52:56;15.90;;;10.10;;
4742;SDS011;24293;48.154;7.748;2023-04-19T01:55:23;15.10;;;9.80;;
4742;SDS011;24293;48.154;7.748;2023-04-19T01:57:51;13.80;;;8.83;;
4742;SDS011;24293;48.154;7.748;2023-04-19T02:00:18;11.80;;;9.10;;
4742;SDS011;24293;48.154;7.748;2023-04-19T02:02:45;13.90;;;9.57;;
4742;SDS011;24293;48.154;7.748;2023-04-19T02:05:12;16.07;;;10.20;;
4742;SDS011;24293;48.154;7.748;2023-04-19T02:07:38;12.90;;;9.77;;
4742;SDS011;24293;48.154;7.748;2023-04-19T02:10:07;14.70;;;9.70;;
4742;SDS011;24293;48.154;7.748;2023-04-19T02:12:34;13.53;;;8.90;;
4742;SDS011;24293;48.154;7.748;2023-04-19T02:15:02;16.40;;;9.50;;
4742;SDS011;24293;48.154;7.748;2023-04-19T02:17:29;12.77;;;8.50;;
4742;SDS011;24293;48.154;7.748;2023-04-19T02:19:56;16.20;;;8.17;;
4742;SDS011;24293;48.154;7.748;2023-04-19T02:22:23;13.73;;;9.63;;
4742;SDS011;24293;48.154;7.748;2023-04-19T02:24:49;12.97;;;8.57;;
4742;SDS011;24293;48.154;7.748;2023-04-19T02:27:16;10.97;;;8.03;;
4742;SDS011;24293;48.154;7.748;2023-04-19T02:29:42;16.30;;;9.10;;
4742;SDS011;24293;48.154;7.748;2023-04-19T02:32:11;12.93;;;7.70;;
4742;SDS011;24293;48.154;7.748;2023-04-19T02:34:38;13.40;;;8.70;;
4742;SDS011;24293;48.154;7.748;2023-04-19T02:37:04;10.97;;;8.03;;
4742;SDS011;24293;48.154;7.748;2023-04-19T02:39:31;13.63;;;9.07;;
4742;SDS011;24293;48.154;7.748;2023-04-19T02:41:58;12.53;;;9.03;;
4742;SDS011;24293;48.154;7.748;2023-04-19T02:44:25;14.00;;;9.73;;
4742;SDS011;24293;48.154;7.748;2023-04-19T02:46:52;14.27;;;9.50;;
4742;SDS011;24293;48.154;7.748;2023-04-19T02:49:20;13.77;;;9.80;;
4742;SDS011;24293;48.154;7.748;2023-04-19T02:51:46;13.70;;;9.50;;
4742;SDS011;24293;48.154;7.748;2023-04-19T02:54:27;15.40;;;10.00;;
4742;SDS011;24293;48.154;7.748;2023-04-19T02:56:55;13.47;;;8.60;;
4742;SDS011;24293;48.154;7.748;2023-04-19T02:59:21;15.07;;;9.80;;
4742;SDS011;24293;48.154;7.748;2023-04-19T03:01:48;15.60;;;10.07;;
4742;SDS011;24293;48.154;7.748;2023-04-19T03:04:14;16.90;;;10.30;;
4742;SDS011;24293;48.154;7.748;2023-04-19T03:06:42;17.60;;;10.53;;
4742;SDS011;24293;48.154;7.748;2023-04-19T03:09:09;17.40;;;10.10;;
4742;SDS011;24293;48.154;7.748;2023-04-19T03:11:36;18.40;;;12.03;;
4742;SDS011;24293;48.154;7.748;2023-04-19T03:14:02;19.47;;;12.40;;
4742;SDS011;24293;48.154;7.748;2023-04-19T03:16:29;16.10;;;10.50;;
4742;SDS011;24293;48.154;7.748;2023-04-19T03:18:55;18.60;;;11.30;;
4742;SDS011;24293;48.154;7.748;2023-04-19T03:21:22;20.63;;;11.33;;
4742;SDS011;24293;48.154;7.748;2023-04-19T03:23:52;16.60;;;11.10;;
4742;SDS011;24293;48.154;7.748;2023-04-19T03:26:19;18.97;;;10.73;;
4742;SDS011;24293;48.154;7.748;2023-04-19T03:28:45;18.10;;;11.23;;
4742;SDS011;24293;48.154;7.748;2023-04-19T03:31:12;21.67;;;12.30;;
4742;SDS011;24293;48.154;7.748;2023-04-19T03:33:39;18.97;;;12.70;;
4742;SDS011;24293;48.154;7.748;2023-04-19T03:36:05;18.83;;;11.80;;
4742;SDS011;24293;48.154;7.748;2023-04-19T03:38:32;17.23;;;11.43;;
4742;SDS011;24293;48.154;7.748;2023-04-19T03:41:00;19.80;;;11.90;;
4742;SDS011;24293;48.154;7.748;2023-04-19T03:43:26;19.47;;;11.97;;
4742;SDS011;24293;48.154;7.748;2023-04-19T03:45:53;17.83;;;11.20;;
4742;SDS011;24293;48.154;7.748;2023-04-19T03:48:19;21.57;;;12.57;;
4742;SDS011;24293;48.154;7.748;2023-04-19T03:50:45;19.27;;;12.37;;
4742;SDS011;24293;48.154;7.748;2023-04-19T03:53:12;19.30;;;11.63;;
4742;SDS011;24293;48.154;7.748;2023-04-19T03:55:38;19.10;;;12.60;;
4742;SDS011;24293;48.154;7.748;2023-04-19T03:58:06;19.80;;;11.63;;
4742;SDS011;24293;48.154;7.748;2023-04-19T04:00:34;18.97;;;11.37;;
4742;SDS011;24293;48.154;7.748;2023-04-19T04:03:01;18.10;;;11.27;;
4742;SDS011;24293;48.154;7.748;2023-04-19T04:05:27;19.30;;;11.80;;
4742;SDS011;24293;48.154;7.748;2023-04-19T04:07:54;15.77;;;10.60;;
4742;SDS011;24293;48.154;7.748;2023-04-19T04:10:21;18.47;;;11.30;;
4742;SDS011;24293;48.154;7.748;2023-04-19T04:12:48;18.23;;;11.53;;
4742;SDS011;24293;48.154;7.748;2023-04-19T04:15:16;18.23;;;10.83;;
4742;SDS011;24293;48.154;7.748;2023-04-19T04:17:42;19.33;;;11.60;;
4742;SDS011;24293;48.154;7.748;2023-04-19T04:20:09;18.37;;;11.53;;
4742;SDS011;24293;48.154;7.748;2023-04-19T04:22:38;20.90;;;13.10;;
4742;SDS011;24293;48.154;7.748;2023-04-19T04:25:05;17.47;;;11.53;;
4742;SDS011;24293;48.154;7.748;2023-04-19T04:27:32;20.60;;;12.73;;
4742;SDS011;24293;48.154;7.748;2023-04-19T04:29:58;18.43;;;12.77;;
4742;SDS011;24293;48.154;7.748;2023-04-19T04:32:26;18.63;;;12.40;;
4742;SDS011;24293;48.154;7.748;2023-04-19T04:34:53;20.00;;;11.97;;
4742;SDS011;24293;48.154;7.748;2023-04-19T04:37:19;20.50;;;12.63;;
4742;SDS011;24293;48.154;7.748;2023-04-19T04:39:46;19.40;;;12.23;;
4742;SDS011;24293;48.154;7.748;2023-04-19T04:42:12;20.10;;;11.93;;
4742;SDS011;24293;48.154;7.748;2023-04-19T04:44:39;21.30;;;12.83;;
4742;SDS011;24293;48.154;7.748;2023-04-19T04:47:06;25.23;;;14.50;;
4742;SDS011;24293;48.154;7.748;2023-04-19T04:49:34;27.70;;;14.73;;
4742;SDS011;24293;48.154;7.748;2023-04-19T04:52:02;25.17;;;14.67;;
4742;SDS011;24293;48.154;7.748;2023-04-19T04:54:28;19.40;;;12.27;;
4742;SDS011;24293;48.154;7.748;2023-04-19T04:56:54;24.70;;;14.30;;
4742;SDS011;24293;48.154;7.748;2023-04-19T04:59:21;24.43;;;14.30;;
4742;SDS011;24293;48.154;7.748;2023-04-19T05:01:48;20.13;;;12.83;;
4742;SDS011;24293;48.154;7.748;2023-04-19T05:04:15;21.60;;;13.90;;
4742;SDS011;24293;48.154;7.748;2023-04-19T05:06:43;21.50;;;13.67;;
4742;SDS011;24293;48.154;7.748;2023-04-19T05:09:09;23.57;;;14.30;;
4742;SDS011;24293;48.154;7.748;2023-04-19T05:11:36;22.47;;;14.37;;
4742;SDS011;24293;48.154;7.748;2023-04-19T05:14:02;24.43;;;14.30;;
4742;SDS011;24293;48.154;7.748;2023-04-19T05:16:29;25.47;;;15.50;;
4742;SDS011;24293;48.154;7.748;2023-04-19T05:18:55;25.63;;;15.60;;
4742;SDS011;24293;48.154;7.748;2023-04-19T05:21:22;23.23;;;15.33;;
4742;SDS011;24293;48.154;7.748;2023-04-19T05:23:50;27.10;;;16.33;;
4742;SDS011;24293;48.154;7.748;2023-04-19T05:26:17;22.93;;;14.83;;
4742;SDS011;24293;48.154;7.748;2023-04-19T05:28:44;24.67;;;14.90;;
4742;SDS011;24293;48.154;7.748;2023-04-19T05:31:10;23.10;;;15.13;;
4742;SDS011;24293;48.154;7.748;2023-04-19T05:33:37;24.03;;;14.50;;
4742;SDS011;24293;48.154;7.748;2023-04-19T05:36:04;25.40;;;15.00;;
4742;SDS011;24293;48.154;7.748;2023-04-19T05:38:30;21.63;;;14.00;;
4742;SDS011;24293;48.154;7.748;2023-04-19T05:40:58;21.70;;;13.03;;
4742;SDS011;24293;48.154;7.748;2023-04-19T05:43:25;21.80;;;14.53;;
4742;SDS011;24293;48.154;7.748;2023-04-19T05:45:51;18.83;;;12.30;;
4742;SDS011;24293;48.154;7.748;2023-04-19T05:48:18;22.53;;;11.30;;
4742;SDS011;24293;48.154;7.748;2023-04-19T05:50:44;20.87;;;12.13;;
4742;SDS011;24293;48.154;7.748;2023-04-19T05:53:11;19.90;;;12.50;;
4742;SDS011;24293;48.154;7.748;2023-04-19T05:55:38;18.43;;;11.40;;
4742;SDS011;24293;48.154;7.748;2023-04-19T05:58:05;25.60;;;15.20;;
4742;SDS011;24293;48.154;7.748;2023-04-19T06:00:32;25.80;;;15.70;;
4742;SDS011;24293;48.154;7.748;2023-04-19T06:02:59;26.00;;;15.40;;
4742;SDS011;24293;48.154;7.748;2023-04-19T06:05:25;35.90;;;19.70;;
4742;SDS011;24293;48.154;7.748;2023-04-19T06:07:52;35.20;;;20.83;;
4742;SDS011;24293;48.154;7.748;2023-04-19T06:10:20;30.50;;;16.33;;
4742;SDS011;24293;48.154;7.748;2023-04-19T06:12:47;18.07;;;12.17;;
4742;SDS011;24293;48.154;7.748;2023-04-19T06:15:15;19.17;;;13.00;;
4742;SDS011;24293;48.154;7.748;2023-04-19T06:17:41;21.90;;;13.30;;
4742;SDS011;24293;48.154;7.748;2023-04-19T06:20:08;22.00;;;13.80;;
4742;SDS011;24293;48.154;7.748;2023-04-19T06:22:37;20.33;;;12.57;;
4742;SDS011;24293;48.154;7.748;2023-04-19T06:25:06;20.40;;;13.90;;
4742;SDS011;24293;48.154;7.748;2023-04-19T06:27:33;20.17;;;12.20;;
4742;SDS011;24293;48.154;7.748;2023-04-19T06:30:00;19.30;;;12.63;;
4742;SDS011;24293;48.154;7.748;2023-04-19T06:32:28;24.23;;;14.40;;
4742;SDS011;24293;48.154;7.748;2023-04-19T06:34:54;18.97;;;13.03;;
4742;SDS011;24293;48.154;7.748;2023-04-19T06:37:20;23.70;;;13.90;;
4742;SDS011;24293;48.154;7.748;2023-04-19T06:39:47;18.63;;;12.97;;
4742;SDS011;24293;48.154;7.748;2023-04-19T06:42:14;20.63;;;13.93;;
4742;SDS011;24293;48.154;7.748;2023-04-19T06:44:43;20.80;;;13.70;;
4742;SDS011;24293;48.154;7.748;2023-04-19T06:47:10;21.80;;;14.37;;
4742;SDS011;24293;48.154;7.748;2023-04-19T06:49:38;22.77;;;14.37;;
4742;SDS011;24293;48.154;7.748;2023-04-19T06:52:04;21.43;;;14.20;;
4742;SDS011;24293;48.154;7.748;2023-04-19T06:54:31;27.30;;;14.23;;
4742;SDS011;24293;48.154;7.748;2023-04-19T06:56:57;21.90;;;13.70;;
4742;SDS011;24293;48.154;7.748;2023-04-19T06:59:25;23.63;;;15.77;;
4742;SDS011;24293;48.154;7.748;2023-04-19T07:01:52;23.57;;;13.77;;
4742;SDS011;24293;48.154;7.748;2023-04-19T07:04:19;23.40;;;13.70;;
4742;SDS011;24293;48.154;7.748;2023-04-19T07:06:48;18.97;;;13.57;;
4742;SDS011;24293;48.154;7.748;2023-04-19T07:09:15;21.83;;;14.77;;
4742;SDS011;24293;48.154;7.748;2023-04-19T07:11:41;21.50;;;14.40;;
4742;SDS011;24293;48.154;7.748;2023-04-19T07:14:08;23.43;;;13.77;;
4742;SDS011;24293;48.154;7.748;2023-04-19T07:16:34;23.90;;;14.77;;
4742;SDS011;24293;48.154;7.748;2023-04-19T07:19:01;28.10;;;14.37;;
4742;SDS011;24293;48.154;7.748;2023-04-19T07:21:27;20.40;;;13.30;;
4742;SDS011;24293;48.154;7.748;2023-04-19T07:23:58;25.30;;;15.27;;
4742;SDS011;24293;48.154;7.748;2023-04-19T07:26:25;23.97;;;13.60;;
4742;SDS011;24293;48.154;7.748;2023-04-19T07:28:51;19.13;;;13.30;;
4742;SDS011;24293;48.154;7.748;2023-04-19T07:31:18;20.97;;;13.27;;
4742;SDS011;24293;48.154;7.748;2023-04-19T07:33:45;25.83;;;15.00;;
4742;SDS011;24293;48.154;7.748;2023-04-19T07:36:11;23.70;;;14.43;;
4742;SDS011;24293;48.154;7.748;2023-04-19T07:38:38;25.10;;;15.03;;
4742;SDS011;24293;48.154;7.748;2023-04-19T07:41:06;26.40;;;14.53;;
4742;SDS011;24293;48.154;7.748;2023-04-19T07:43:33;28.20;;;14.97;;
4742;SDS011;24293;48.154;7.748;2023-04-19T07:45:59;27.03;;;15.43;;
4742;SDS011;24293;48.154;7.748;2023-04-19T07:48:26;24.57;;;14.10;;
4742;SDS011;24293;48.154;7.748;2023-04-19T07:50:52;32.07;;;15.53;;
4742;SDS011;24293;48.154;7.748;2023-04-19T07:53:18;28.73;;;15.97;;
4742;SDS011;24293;48.154;7.748;2023-04-19T07:55:45;27.43;;;15.50;;
4742;SDS011;24293;48.154;7.748;2023-04-19T07:58:13;29.07;;;15.77;;
4742;SDS011;24293;48.154;7.748;2023-04-19T08:00:39;26.97;;;15.00;;
4742;SDS011;24293;48.154;7.748;2023-04-19T08:03:06;23.73;;;15.10;;
4742;SDS011;24293;48.154;7.748;2023-04-19T08:05:33;24.03;;;15.17;;
4742;SDS011;24293;48.154;7.748;2023-04-19T08:07:59;22.30;;;14.33;;
4742;SDS011;24293;48.154;7.748;2023-04-19T08:10:26;31.70;;;16.53;;
4742;SDS011;24293;48.154;7.748;2023-04-19T08:12:54;28.83;;;15.03;;
4742;SDS011;24293;48.154;7.748;2023-04-19T08:15:22;32.07;;;14.87;;
4742;SDS011;24293;48.154;7.748;2023-04-19T08:17:48;33.10;;;15.17;;
4742;SDS011;24293;48.154;7.748;2023-04-19T08:20:15;22.40;;;13.70;;
4742;SDS011;24293;48.154;7.748;2023-04-19T08:22:41;35.57;;;15.07;;
4742;SDS011;24293;48.154;7.748;2023-04-19T08:25:08;27.30;;;15.60;;
4742;SDS011;24293;48.154;7.748;2023-04-19T08:27:35;23.00;;;13.90;;
4742;SDS011;24293;48.154;7.748;2023-04-19T08:30:02;25.57;;;13.93;;
4742;SDS011;24293;48.154;7.748;2023-04-19T08:32:30;26.47;;;13.40;;
4742;SDS011;24293;48.154;7.748;2023-04-19T08:34:56;21.40;;;14.00;;
4742;SDS011;24293;48.154;7.748;2023-04-19T08:37:25;22.83;;;14.10;;
4742;SDS011;24293;48.154;7.748;2023-04-19T08:39:51;19.70;;;13.50;;
4742;SDS011;24293;48.154;7.748;2023-04-19T08:42:17;17.90;;;12.47;;
4742;SDS011;24293;48.154;7.748;2023-04-19T08:44:44;19.93;;;13.07;;
4742;SDS011;24293;48.154;7.748;2023-04-19T08:47:11;17.23;;;11.97;;
4742;SDS011;24293;48.154;7.748;2023-04-19T08:49:39;19.30;;;12.53;;
4742;SDS011;24293;48.154;7.748;2023-04-19T08:52:05;19.50;;;12.13;;
4742;SDS011;24293;48.154;7.748;2023-04-19T08:54:34;18.90;;;13.57;;
4742;SDS011;24293;48.154;7.748;2023-04-19T08:57:00;19.33;;;12.27;;
4742;SDS011;24293;48.154;7.748;2023-04-19T08:59:27;19.40;;;11.60;;
4742;SDS011;24293;48.154;7.748;2023-04-19T09:01:55;20.53;;;13.30;;
4742;SDS011;24293;48.154;7.748;2023-04-19T09:04:24;22.03;;;13.10;;
4742;SDS011;24293;48.154;7.748;2023-04-19T09:06:52;19.80;;;12.40;;
4742;SDS011;24293;48.154;7.748;2023-04-19T09:09:19;16.10;;;12.10;;
4742;SDS011;24293;48.154;7.748;2023-04-19T09:11:46;18.53;;;12.27;;
4742;SDS011;24293;48.154;7.748;2023-04-19T09:14:14;19.30;;;13.93;;
4742;SDS011;24293;48.154;7.748;2023-04-19T09:16:40;18.60;;;12.73;;
4742;SDS011;24293;48.154;7.748;2023-04-19T09:19:07;16.53;;;11.20;;
4742;SDS011;24293;48.154;7.748;2023-04-19T09:21:34;17.47;;;12.10;;
4742;SDS011;24293;48.154;7.748;2023-04-19T09:24:02;16.70;;;12.10;;
4742;SDS011;24293;48.154;7.748;2023-04-19T09:26:29;16.23;;;11.80;;
4742;SDS011;24293;48.154;7.748;2023-04-19T09:28:56;18.43;;;12.47;;
4742;SDS011;24293;48.154;7.748;2023-04-19T09:31:23;15.47;;;11.50;;
4742;SDS011;24293;48.154;7.748;2023-04-19T09:33:50;16.93;;;11.80;;
4742;SDS011;24293;48.154;7.748;2023-04-19T09:36:27;13.50;;;10.87;;
4742;SDS011;24293;48.154;7.748;2023-04-19T09:38:55;14.90;;;10.77;;
4742;SDS011;24293;48.154;7.748;2023-04-19T09:41:23;14.60;;;11.63;;
4742;SDS011;24293;48.154;7.748;2023-04-19T09:43:50;15.07;;;10.27;;
4742;SDS011;24293;48.154;7.748;2023-04-19T09:46:28;15.83;;;10.50;;
4742;SDS011;24293;48.154;7.748;2023-04-19T09:48:55;16.53;;;10.83;;
4742;SDS011;24293;48.154;7.748;2023-04-19T09:51:40;14.47;;;10.40;;
4742;SDS011;24293;48.154;7.748;2023-04-19T09:54:08;12.37;;;8.77;;
4742;SDS011;24293;48.154;7.748;2023-04-19T09:56:36;16.00;;;10.53;;
4742;SDS011;24293;48.154;7.748;2023-04-19T09:59:03;12.27;;;9.00;;
4742;SDS011;24293;48.154;7.748;2023-04-19T10:01:29;13.63;;;9.43;;
4742;SDS011;24293;48.154;7.748;2023-04-19T10:03:58;24.00;;;10.30;;
4742;SDS011;24293;48.154;7.748;2023-04-19T10:06:25;13.20;;;7.70;;
4742;SDS011;24293;48.154;7.748;2023-04-19T10:08:52;10.97;;;7.80;;
4742;SDS011;24293;48.154;7.748;2023-04-19T10:11:19;12.00;;;9.07;;
4742;SDS011;24293;48.154;7.748;2023-04-19T10:13:48;13.63;;;8.50;;
4742;SDS011;24293;48.154;7.748;2023-04-19T10:16:14;13.80;;;8.10;;
4742;SDS011;24293;48.154;7.748;2023-04-19T10:18:41;13.37;;;8.70;;
4742;SDS011;24293;48.154;7.748;2023-04-19T10:21:08;11.20;;;8.40;;
4742;SDS011;24293;48.154;7.748;2023-04-19T10:23:36;11.17;;;8.43;;
4742;SDS011;24293;48.154;7.748;2023-04-19T10:26:02;10.17;;;7.10;;
4742;SDS011;24293;48.154;7.748;2023-04-19T10:28:30;11.20;;;7.00;;
4742;SDS011;24293;48.154;7.748;2023-04-19T10:31:00;9.97;;;6.80;;
4742;SDS011;24293;48.154;7.748;2023-04-19T10:33:27;9.43;;;7.20;;
4742;SDS011;24293;48.154;7.748;2023-04-19T10:35:55;11.13;;;7.00;;
4742;SDS011;24293;48.154;7.748;2023-04-19T10:41:04;9.53;;;7.43;;
4742;SDS011;24293;48.154;7.748;2023-04-19T10:43:36;9.60;;;7.20;;
4742;SDS011;24293;48.154;7.748;2023-04-19T10:46:06;8.10;;;6.43;;
4742;SDS011;24293;48.154;7.748;2023-04-19T10:48:34;9.23;;;6.27;;
4742;SDS011;24293;48.154;7.748;2023-04-19T10:51:03;9.57;;;6.63;;
4742;SDS011;24293;48.154;7.748;2023-04-19T10:53:44;7.90;;;5.50;;
4742;SDS011;24293;48.154;7.748;2023-04-19T10:56:10;8.83;;;5.60;;
4742;SDS011;24293;48.154;7.748;2023-04-19T11:01:33;8.00;;;5.80;;
4742;SDS011;24293;48.154;7.748;2023-04-19T11:04:02;8.60;;;5.77;;
4742;SDS011;24293;48.154;7.748;2023-04-19T11:06:28;9.97;;;7.17;;
4742;SDS011;24293;48.154;7.748;2023-04-19T11:08:55;14.43;;;7.70;;
4742;SDS011;24293;48.154;7.748;2023-04-19T11:11:22;11.80;;;9.03;;
4742;SDS011;24293;48.154;7.748;2023-04-19T11:13:49;17.23;;;10.33;;
4742;SDS011;24293;48.154;7.748;2023-04-19T11:16:17;18.13;;;10.80;;
4742;SDS011;24293;48.154;7.748;2023-04-19T11:18:45;14.13;;;10.30;;
4742;SDS011;24293;48.154;7.748;2023-04-19T11:21:12;16.60;;;11.33;;
4742;SDS011;24293;48.154;7.748;2023-04-19T11:23:39;14.10;;;10.13;;
4742;SDS011;24293;48.154;7.748;2023-04-19T11:26:05;13.80;;;10.30;;
4742;SDS011;24293;48.154;7.748;2023-04-19T11:28:32;19.20;;;10.20;;
4742;SDS011;24293;48.154;7.748;2023-04-19T11:30:58;15.83;;;11.70;;
4742;SDS011;24293;48.154;7.748;2023-04-19T11:33:25;15.07;;;10.47;;
4742;SDS011;24293;48.154;7.748;2023-04-19T11:35:54;16.80;;;10.20;;
4742;SDS011;24293;48.154;7.748;2023-04-19T11:38:20;18.57;;;11.33;;
4742;SDS011;24293;48.154;7.748;2023-04-19T11:40:47;17.30;;;10.93;;
4742;SDS011;24293;48.154;7.748;2023-04-19T11:43:23;14.20;;;10.73;;
4742;SDS011;24293;48.154;7.748;2023-04-19T11:45:49;15.17;;;9.80;;
4742;SDS011;24293;48.154;7.748;2023-04-19T11:48:15;16.00;;;10.70;;
4742;SDS011;24293;48.154;7.748;2023-04-19T11:50:42;16.73;;;10.00;;
4742;SDS011;24293;48.154;7.748;2023-04-19T11:53:11;18.13;;;10.70;;
4742;SDS011;24293;48.154;7.748;2023-04-19T11:55:40;26.33;;;10.80;;
4742;SDS011;24293;48.154;7.748;2023-04-19T11:58:07;14.33;;;9.53;;
4742;SDS011;24293;48.154;7.748;2023-04-19T12:00:34;16.10;;;10.80;;
4742;SDS011;24293;48.154;7.748;2023-04-19T12:03:01;15.83;;;11.13;;
4742;SDS011;24293;48.154;7.748;2023-04-19T12:05:28;15.70;;;10.80;;
4742;SDS011;24293;48.154;7.748;2023-04-19T12:08:02;27.90;;;17.63;;
4742;SDS011;24293;48.154;7.748;2023-04-19T12:10:30;19.00;;;12.37;;
4742;SDS011;24293;48.154;7.748;2023-04-19T12:12:57;16.83;;;11.40;;
4742;SDS011;24293;48.154;7.748;2023-04-19T12:15:23;16.87;;;10.50;;
4742;SDS011;24293;48.154;7.748;2023-04-19T12:18:05;14.83;;;10.40;;
4742;SDS011;24293;48.154;7.748;2023-04-19T12:20:32;16.60;;;11.17;;
4742;SDS011;24293;48.154;7.748;2023-04-19T12:22:59;14.67;;;10.50;;
4742;SDS011;24293;48.154;7.748;2023-04-19T12:25:27;15.73;;;10.43;;
4742;SDS011;24293;48.154;7.748;2023-04-19T12:27:55;18.70;;;11.53;;
4742;SDS011;24293;48.154;7.748;2023-04-19T12:30:21;16.63;;;11.10;;
4742;SDS011;24293;48.154;7.748;2023-04-19T12:32:48;16.03;;;10.53;;
4742;SDS011;24293;48.154;7.748;2023-04-19T12:35:15;15.43;;;10.43;;
4742;SDS011;24293;48.154;7.748;2023-04-19T12:37:42;16.13;;;10.90;;
4742;SDS011;24293;48.154;7.748;2023-04-19T12:40:09;15.27;;;10.73;;
4742;SDS011;24293;48.154;7.748;2023-04-19T12:42:35;15.97;;;11.03;;
4742;SDS011;24293;48.154;7.748;2023-04-19T12:45:03;15.07;;;10.33;;
4742;SDS011;24293;48.154;7.748;2023-04-19T12:47:30;16.53;;;11.40;;
4742;SDS011;24293;48.154;7.748;2023-04-19T12:49:57;13.80;;;10.60;;
4742;SDS011;24293;48.154;7.748;2023-04-19T12:52:23;15.83;;;10.17;;
4742;SDS011;24293;48.154;7.748;2023-04-19T12:54:50;14.37;;;9.83;;
4742;SDS011;24293;48.154;7.748;2023-04-19T12:57:16;12.90;;;9.40;;
4742;SDS011;24293;48.154;7.748;2023-04-19T12:59:43;13.73;;;10.17;;
4742;SDS011;24293;48.154;7.748;2023-04-19T13:02:11;17.93;;;10.00;;
4742;SDS011;24293;48.154;7.748;2023-04-19T13:04:37;16.90;;;10.07;;
4742;SDS011;24293;48.154;7.748;2023-04-19T13:07:04;13.10;;;9.50;;
4742;SDS011;24293;48.154;7.748;2023-04-19T13:09:30;16.03;;;11.30;;
4742;SDS011;24293;48.154;7.748;2023-04-19T13:11:57;12.70;;;9.53;;
4742;SDS011;24293;48.154;7.748;2023-04-19T13:14:24;13.23;;;9.67;;
4742;SDS011;24293;48.154;7.748;2023-04-19T13:16:51;15.47;;;10.43;;
4742;SDS011;24293;48.154;7.748;2023-04-19T13:19:19;19.93;;;10.30;;
4742;SDS011;24293;48.154;7.748;2023-04-19T13:21:46;15.00;;;9.90;;
4742;SDS011;24293;48.154;7.748;2023-04-19T13:24:12;15.03;;;10.90;;
4742;SDS011;24293;48.154;7.748;2023-04-19T13:26:38;20.83;;;12.70;;
4742;SDS011;24293;48.154;7.748;2023-04-19T13:29:05;13.67;;;9.60;;
4742;SDS011;24293;48.154;7.748;2023-04-19T13:31:33;13.60;;;9.63;;
4742;SDS011;24293;48.154;7.748;2023-04-19T13:33:59;12.87;;;9.60;;
4742;SDS011;24293;48.154;7.748;2023-04-19T13:36:28;16.20;;;9.60;;
4742;SDS011;24293;48.154;7.748;2023-04-19T13:38:55;17.27;;;10.97;;
4742;SDS011;24293;48.154;7.748;2023-04-19T13:41:21;19.80;;;12.30;;
4742;SDS011;24293;48.154;7.748;2023-04-19T13:43:48;16.67;;;10.87;;
4742;SDS011;24293;48.154;7.748;2023-04-19T13:46:15;13.97;;;9.93;;
4742;SDS011;24293;48.154;7.748;2023-04-19T13:48:41;19.43;;;13.67;;
4742;SDS011;24293;48.154;7.748;2023-04-19T13:51:08;20.93;;;15.23;;
4742;SDS011;24293;48.154;7.748;2023-04-19T13:53:35;19.67;;;13.70;;
4742;SDS011;24293;48.154;7.748;2023-04-19T13:56:02;19.97;;;13.87;;
4742;SDS011;24293;48.154;7.748;2023-04-19T13:58:29;16.10;;;10.90;;
4742;SDS011;24293;48.154;7.748;2023-04-19T14:00:55;19.37;;;11.73;;
4742;SDS011;24293;48.154;7.748;2023-04-19T14:03:22;15.70;;;11.20;;
4742;SDS011;24293;48.154;7.748;2023-04-19T14:05:49;15.93;;;10.47;;
4742;SDS011;24293;48.154;7.748;2023-04-19T14:08:15;14.00;;;10.30;;
4742;SDS011;24293;48.154;7.748;2023-04-19T14:10:43;18.97;;;11.60;;
4742;SDS011;24293;48.154;7.748;2023-04-19T14:13:10;19.23;;;12.10;;
4742;SDS011;24293;48.154;7.748;2023-04-19T14:15:36;16.33;;;10.13;;
4742;SDS011;24293;48.154;7.748;2023-04-19T14:18:03;18.90;;;12.53;;
4742;SDS011;24293;48.154;7.748;2023-04-19T14:20:29;14.33;;;9.80;;
4742;SDS011;24293;48.154;7.748;2023-04-19T14:22:56;12.47;;;9.17;;
4742;SDS011;24293;48.154;7.748;2023-04-19T14:25:24;18.40;;;9.33;;
4742;SDS011;24293;48.154;7.748;2023-04-19T14:27:52;14.30;;;9.40;;
4742;SDS011;24293;48.154;7.748;2023-04-19T14:30:18;12.53;;;8.17;;
4742;SDS011;24293;48.154;7.748;2023-04-19T14:32:45;12.33;;;9.23;;
4742;SDS011;24293;48.154;7.748;2023-04-19T14:35:11;16.33;;;10.10;;
4742;SDS011;24293;48.154;7.748;2023-04-19T14:37:38;10.47;;;7.80;;
4742;SDS011;24293;48.154;7.748;2023-04-19T14:40:05;13.90;;;9.17;;
4742;SDS011;24293;48.154;7.748;2023-04-19T14:42:32;12.30;;;8.17;;
4742;SDS011;24293;48.154;7.748;2023-04-19T14:45:00;12.13;;;8.63;;